»·PEaware :: SWA2499 KOAK-KRNO

SWA2499 :: KOAK-KRNO

FLIGHT INFORMATION

Flight Status: Arrived
Operator:
Southwest Airlines
More flights by this operator :: More flights under this callsign
Pilot: Alec D. (17934)
Aircraft: BOEING 737-200
(B732)
More flights by this aircraft type
Origin: KOAK Metro Oakland Intl
United States
Destination: KRNO Reno/Tahoe Intl
United States
More flights between these airports :: More routes between these airports
Route: +OAK3 OAK SAC SIER3
File this flight plan on PilotEdge
Remarks:
Altitude:
(Current/Filed)
25,000ft
Speed:
(Current/Filed)
420kts
Departed: 04-Mar-19 11:53 AM
Arrived: 04-Mar-19 12:27 PM
Distance/Time
Traveled:
157nm/0:34
Distance/Time
To Go:
Arrived

Flight Plot

Page will automatically refresh every two minutes.

Flight plan parsing failed; only flown route is shown


Map Options




Map Legend


Flown Route
Filed Route
Departure Airport
Arrival Airport
Navaid (VOR, NDB)
Fix

Horizontal Profiles

Position Reports

Time Latitude Longitude Heading Altitude Ground
Speed
04-Mar-19 11:23 37.711661 -122.212272 34 12ft 0kts
04-Mar-19 11:24 37.711661 -122.212272 34 12ft 0kts
04-Mar-19 11:25 37.711661 -122.212272 34 12ft 0kts
04-Mar-19 11:26 37.711661 -122.212272 34 12ft 0kts
04-Mar-19 11:27 37.711661 -122.212272 34 12ft 0kts
04-Mar-19 11:28 37.711661 -122.212272 34 12ft 0kts
04-Mar-19 11:29 37.711661 -122.212272 34 12ft 0kts
04-Mar-19 11:30 37.711661 -122.212272 34 12ft 0kts
04-Mar-19 11:31 37.711661 -122.212272 34 12ft 0kts
04-Mar-19 11:32 37.711661 -122.212272 34 12ft 0kts
04-Mar-19 11:33 37.711661 -122.212272 34 12ft 0kts
04-Mar-19 11:34 37.711661 -122.212272 34 12ft 0kts
04-Mar-19 11:35 37.711661 -122.212272 34 12ft 0kts
04-Mar-19 11:36 37.711661 -122.212272 34 12ft 0kts
04-Mar-19 11:37 37.711661 -122.212272 34 12ft 0kts
04-Mar-19 11:38 37.711661 -122.212272 34 12ft 0kts
04-Mar-19 11:39 37.711661 -122.212272 34 12ft 0kts
04-Mar-19 11:40 37.711661 -122.212272 34 12ft 0kts
04-Mar-19 11:41 37.711661 -122.212272 34 12ft 0kts
04-Mar-19 11:42 37.711244 -122.212684 55 12ft 2kts
04-Mar-19 11:43 37.711160 -122.212954 81 12ft 0kts
04-Mar-19 11:44 37.711160 -122.212954 81 12ft 0kts
04-Mar-19 11:45 37.711160 -122.212954 81 12ft 0kts
04-Mar-19 11:46 37.711328 -122.212910 325 12ft 9kts
04-Mar-19 11:47 37.711524 -122.213163 305 12ft 0kts
04-Mar-19 11:48 37.708816 -122.216163 199 12ft 21kts
04-Mar-19 11:49 37.704932 -122.215595 130 12ft 18kts
04-Mar-19 11:50 37.702511 -122.213754 196 12ft 0kts
04-Mar-19 11:51 37.702452 -122.213780 200 12ft 3kts
04-Mar-19 11:52 37.704250 -122.218398 309 12ft 71kts
04-Mar-19 11:53 37.731836 -122.258801 311 961ft 204kts
04-Mar-19 11:54 37.771019 -122.314639 309 2215ft 238kts
04-Mar-19 11:55 37.815201 -122.381837 308 5882ft 257kts
04-Mar-19 11:56 37.879119 -122.414169 11 9216ft 279kts
04-Mar-19 11:57 37.947951 -122.354813 41 11835ft 327kts
04-Mar-19 11:58 38.012121 -122.264013 47 14378ft 363kts
04-Mar-19 11:59 38.071648 -122.156291 53 16986ft 384kts
04-Mar-19 12:00 38.135976 -122.043261 46 19081ft 404kts
04-Mar-19 12:01 38.210978 -121.933836 45 21252ft 414kts
04-Mar-19 12:02 38.280598 -121.815617 49 23308ft 419kts
04-Mar-19 12:03 38.352097 -121.695916 47 24773ft 431kts
04-Mar-19 12:04 38.428007 -121.571071 43 25226ft 458kts
04-Mar-19 12:05 38.520406 -121.454857 40 25204ft 478kts
04-Mar-19 12:06 38.614055 -121.331722 39 25205ft 486kts
04-Mar-19 12:07 38.711587 -121.210103 39 25199ft 490kts
04-Mar-19 12:08 38.807063 -121.085793 40 25198ft 488kts
04-Mar-19 12:09 38.901937 -120.962368 39 25196ft 482kts
04-Mar-19 12:10 38.997341 -120.841223 39 23877ft 482kts
04-Mar-19 12:11 39.091024 -120.720691 40 21706ft 472kts
04-Mar-19 12:12 39.182092 -120.601158 40 19616ft 461kts
04-Mar-19 12:13 39.270478 -120.485308 40 17599ft 446kts
04-Mar-19 12:14 39.356673 -120.374217 40 16015ft 423kts
04-Mar-19 12:15 39.434533 -120.272231 42 16008ft 374kts
04-Mar-19 12:16 39.501448 -120.179290 42 15758ft 339kts
04-Mar-19 12:17 39.567782 -120.086865 44 13755ft 360kts
04-Mar-19 12:18 39.630259 -120.004215 33 11335ft 289kts
04-Mar-19 12:19 39.699245 -119.953320 48 8941ft 301kts
04-Mar-19 12:20 39.713186 -119.860894 92 8785ft 231kts
04-Mar-19 12:21 39.689528 -119.793839 142 8079ft 200kts
04-Mar-19 12:22 39.638599 -119.771331 175 7084ft 196kts
04-Mar-19 12:23 39.585922 -119.768212 179 6002ft 184kts
04-Mar-19 12:24 39.542602 -119.769130 179 5101ft 139kts
04-Mar-19 12:25 39.505355 -119.769232 180 4421ft 101kts
04-Mar-19 12:27 39.497853 -119.769976 265 4421ft 0kts
04-Mar-19 12:28 39.497836 -119.770686 269 4421ft 8kts
04-Mar-19 12:29 39.500549 -119.771608 0 4421ft 17kts
04-Mar-19 12:30 39.505998 -119.771599 0 4421ft 14kts
04-Mar-19 12:31 39.506873 -119.772823 357 4421ft 0kts
04-Mar-19 12:32 39.506873 -119.772823 357 4421ft 0kts
04-Mar-19 12:33 39.506874 -119.772823 357 4421ft 0kts
04-Mar-19 12:34 39.506874 -119.772823 357 4421ft 0kts
04-Mar-19 12:35 39.506874 -119.772823 357 4421ft 0kts
04-Mar-19 12:36 39.506875 -119.772823 357 4421ft 0kts
04-Mar-19 12:37 39.506875 -119.772823 357 4421ft 0kts

Navigation Log

Ident Type
Flight plan parsing failed, navigation log unavailable